sensor_id;sensor_type;location;lat;lon;timestamp;pressure;altitude;pressure_sealevel;temperature;humidity
37610;BME280;23457;51.966;8.230;2024-02-21T00:00:38;101517.38;;;8.87;100.00
37610;BME280;23457;51.966;8.230;2024-02-21T00:03:05;101515.44;;;9.05;100.00
37610;BME280;23457;51.966;8.230;2024-02-21T00:05:32;101512.13;;;8.84;100.00
37610;BME280;23457;51.966;8.230;2024-02-21T00:08:02;101516.06;;;8.74;100.00
37610;BME280;23457;51.966;8.230;2024-02-21T00:10:32;101517.34;;;8.85;100.00
37610;BME280;23457;51.966;8.230;2024-02-21T00:12:59;101508.63;;;8.83;100.00
37610;BME280;23457;51.966;8.230;2024-02-21T00:15:26;101509.97;;;8.96;100.00
37610;BME280;23457;51.966;8.230;2024-02-21T00:17:53;101508.56;;;9.06;100.00
37610;BME280;23457;51.966;8.230;2024-02-21T00:20:20;101511.25;;;9.09;100.00
37610;BME280;23457;51.966;8.230;2024-02-21T00:22:46;101493.69;;;8.76;100.00
37610;BME280;23457;51.966;8.230;2024-02-21T00:25:13;101491.44;;;8.85;100.00
37610;BME280;23457;51.966;8.230;2024-02-21T00:27:40;101495.28;;;8.96;100.00
37610;BME280;23457;51.966;8.230;2024-02-21T00:30:07;101484.75;;;8.92;100.00
37610;BME280;23457;51.966;8.230;2024-02-21T00:32:33;101473.31;;;9.12;100.00
37610;BME280;23457;51.966;8.230;2024-02-21T00:35:01;101471.72;;;9.16;100.00
37610;BME280;23457;51.966;8.230;2024-02-21T00:37:27;101469.03;;;9.13;100.00
37610;BME280;23457;51.966;8.230;2024-02-21T00:39:54;101470.38;;;9.02;100.00
37610;BME280;23457;51.966;8.230;2024-02-21T00:42:21;101465.31;;;9.05;100.00
37610;BME280;23457;51.966;8.230;2024-02-21T00:44:47;101466.06;;;9.02;100.00
37610;BME280;23457;51.966;8.230;2024-02-21T00:47:14;101457.16;;;8.94;100.00
37610;BME280;23457;51.966;8.230;2024-02-21T00:49:41;101456.59;;;9.03;100.00
37610;BME280;23457;51.966;8.230;2024-02-21T00:52:08;101445.34;;;9.02;100.00
37610;BME280;23457;51.966;8.230;2024-02-21T00:54:34;101438.38;;;9.01;100.00
37610;BME280;23457;51.966;8.230;2024-02-21T00:57:16;101426.22;;;8.98;100.00
37610;BME280;23457;51.966;8.230;2024-02-21T00:59:42;101429.28;;;9.14;100.00
37610;BME280;23457;51.966;8.230;2024-02-21T01:02:09;101439.47;;;9.08;100.00
37610;BME280;23457;51.966;8.230;2024-02-21T01:04:36;101431.41;;;8.98;100.00
37610;BME280;23457;51.966;8.230;2024-02-21T01:07:03;101426.66;;;9.12;100.00
37610;BME280;23457;51.966;8.230;2024-02-21T01:09:30;101432.22;;;8.97;100.00
37610;BME280;23457;51.966;8.230;2024-02-21T01:11:56;101444.84;;;8.88;100.00
37610;BME280;23457;51.966;8.230;2024-02-21T01:14:23;101438.84;;;8.89;100.00
37610;BME280;23457;51.966;8.230;2024-02-21T01:16:50;101436.00;;;9.07;100.00
37610;BME280;23457;51.966;8.230;2024-02-21T01:19:17;101442.59;;;8.97;100.00
37610;BME280;23457;51.966;8.230;2024-02-21T01:21:43;101446.53;;;9.12;100.00
37610;BME280;23457;51.966;8.230;2024-02-21T01:24:10;101439.91;;;8.94;100.00
37610;BME280;23457;51.966;8.230;2024-02-21T01:26:37;101425.47;;;9.03;100.00
37610;BME280;23457;51.966;8.230;2024-02-21T01:29:03;101420.66;;;8.88;100.00
37610;BME280;23457;51.966;8.230;2024-02-21T01:31:30;101425.16;;;8.93;100.00
37610;BME280;23457;51.966;8.230;2024-02-21T01:33:57;101419.31;;;8.99;100.00
37610;BME280;23457;51.966;8.230;2024-02-21T01:36:24;101416.88;;;9.04;100.00
37610;BME280;23457;51.966;8.230;2024-02-21T01:38:51;101417.13;;;9.11;100.00
37610;BME280;23457;51.966;8.230;2024-02-21T01:41:17;101412.31;;;8.96;100.00
37610;BME280;23457;51.966;8.230;2024-02-21T01:43:44;101415.25;;;9.07;100.00
37610;BME280;23457;51.966;8.230;2024-02-21T01:46:11;101411.78;;;9.07;100.00
37610;BME280;23457;51.966;8.230;2024-02-21T01:48:38;101401.91;;;8.95;100.00
37610;BME280;23457;51.966;8.230;2024-02-21T01:51:05;101413.16;;;8.95;100.00
37610;BME280;23457;51.966;8.230;2024-02-21T01:53:38;101398.47;;;8.96;100.00
37610;BME280;23457;51.966;8.230;2024-02-21T01:56:07;101381.16;;;8.95;100.00
37610;BME280;23457;51.966;8.230;2024-02-21T01:58:37;101382.22;;;9.02;100.00
37610;BME280;23457;51.966;8.230;2024-02-21T02:01:04;101376.56;;;8.86;100.00
37610;BME280;23457;51.966;8.230;2024-02-21T02:03:30;101382.34;;;9.05;100.00
37610;BME280;23457;51.966;8.230;2024-02-21T02:05:57;101385.13;;;9.11;100.00
37610;BME280;23457;51.966;8.230;2024-02-21T02:08:24;101367.06;;;9.14;100.00
37610;BME280;23457;51.966;8.230;2024-02-21T02:10:51;101375.28;;;9.01;100.00
37610;BME280;23457;51.966;8.230;2024-02-21T02:13:18;101368.66;;;9.09;100.00
37610;BME280;23457;51.966;8.230;2024-02-21T02:15:48;101372.56;;;8.96;100.00
37610;BME280;23457;51.966;8.230;2024-02-21T02:18:16;101364.94;;;9.02;100.00
37610;BME280;23457;51.966;8.230;2024-02-21T02:20:44;101358.16;;;9.06;100.00
37610;BME280;23457;51.966;8.230;2024-02-21T02:25:47;101353.41;;;9.19;100.00
37610;BME280;23457;51.966;8.230;2024-02-21T02:28:19;101354.63;;;9.04;100.00
37610;BME280;23457;51.966;8.230;2024-02-21T02:30:46;101350.78;;;9.18;100.00
37610;BME280;23457;51.966;8.230;2024-02-21T02:33:13;101353.19;;;9.12;100.00
37610;BME280;23457;51.966;8.230;2024-02-21T02:35:40;101344.59;;;9.14;100.00
37610;BME280;23457;51.966;8.230;2024-02-21T02:38:07;101339.38;;;9.13;100.00
37610;BME280;23457;51.966;8.230;2024-02-21T02:40:34;101332.50;;;9.15;100.00
37610;BME280;23457;51.966;8.230;2024-02-21T02:43:01;101327.31;;;8.88;100.00
37610;BME280;23457;51.966;8.230;2024-02-21T02:45:28;101329.66;;;9.06;100.00
37610;BME280;23457;51.966;8.230;2024-02-21T02:47:56;101327.06;;;9.06;100.00
37610;BME280;23457;51.966;8.230;2024-02-21T02:50:24;101322.50;;;8.98;100.00
37610;BME280;23457;51.966;8.230;2024-02-21T02:52:51;101298.53;;;9.06;100.00
37610;BME280;23457;51.966;8.230;2024-02-21T02:55:18;101302.59;;;8.97;100.00
37610;BME280;23457;51.966;8.230;2024-02-21T02:57:44;101288.25;;;9.09;100.00
37610;BME280;23457;51.966;8.230;2024-02-21T03:00:12;101276.50;;;9.20;100.00
37610;BME280;23457;51.966;8.230;2024-02-21T03:02:41;101277.69;;;9.03;100.00
37610;BME280;23457;51.966;8.230;2024-02-21T03:05:12;101264.59;;;8.98;100.00
37610;BME280;23457;51.966;8.230;2024-02-21T03:07:40;101264.63;;;8.99;100.00
37610;BME280;23457;51.966;8.230;2024-02-21T03:10:07;101263.28;;;9.12;100.00
37610;BME280;23457;51.966;8.230;2024-02-21T03:12:35;101258.91;;;9.10;100.00
37610;BME280;23457;51.966;8.230;2024-02-21T03:15:02;101254.72;;;9.15;100.00
37610;BME280;23457;51.966;8.230;2024-02-21T03:17:29;101251.03;;;9.07;100.00
37610;BME280;23457;51.966;8.230;2024-02-21T03:19:56;101253.84;;;9.14;100.00
37610;BME280;23457;51.966;8.230;2024-02-21T03:22:23;101262.13;;;9.03;100.00
37610;BME280;23457;51.966;8.230;2024-02-21T03:24:49;101263.56;;;8.93;100.00
37610;BME280;23457;51.966;8.230;2024-02-21T03:27:16;101271.66;;;9.04;100.00
37610;BME280;23457;51.966;8.230;2024-02-21T03:29:43;101275.88;;;9.00;100.00
37610;BME280;23457;51.966;8.230;2024-02-21T03:32:10;101290.13;;;9.14;100.00
37610;BME280;23457;51.966;8.230;2024-02-21T03:34:36;101285.72;;;9.10;100.00
37610;BME280;23457;51.966;8.230;2024-02-21T03:37:03;101287.69;;;9.19;100.00
37610;BME280;23457;51.966;8.230;2024-02-21T03:39:33;101286.41;;;9.33;100.00
37610;BME280;23457;51.966;8.230;2024-02-21T03:42:00;101293.84;;;8.94;100.00
37610;BME280;23457;51.966;8.230;2024-02-21T03:44:31;101287.78;;;8.93;100.00
37610;BME280;23457;51.966;8.230;2024-02-21T03:47:01;101286.84;;;8.91;100.00
37610;BME280;23457;51.966;8.230;2024-02-21T03:49:27;101295.94;;;9.06;100.00
37610;BME280;23457;51.966;8.230;2024-02-21T03:51:55;101292.69;;;9.13;100.00
37610;BME280;23457;51.966;8.230;2024-02-21T03:54:22;101291.53;;;9.03;100.00
37610;BME280;23457;51.966;8.230;2024-02-21T03:56:49;101289.19;;;9.11;100.00
37610;BME280;23457;51.966;8.230;2024-02-21T03:59:16;101295.94;;;9.06;100.00
37610;BME280;23457;51.966;8.230;2024-02-21T04:01:42;101297.88;;;9.13;100.00
37610;BME280;23457;51.966;8.230;2024-02-21T04:04:10;101282.16;;;9.07;100.00
37610;BME280;23457;51.966;8.230;2024-02-21T04:06:46;101276.59;;;9.23;100.00
37610;BME280;23457;51.966;8.230;2024-02-21T04:09:13;101273.13;;;9.22;100.00
37610;BME280;23457;51.966;8.230;2024-02-21T04:11:39;101278.94;;;9.15;100.00
37610;BME280;23457;51.966;8.230;2024-02-21T04:14:06;101275.69;;;8.94;100.00
37610;BME280;23457;51.966;8.230;2024-02-21T04:16:34;101281.44;;;9.12;100.00
37610;BME280;23457;51.966;8.230;2024-02-21T04:19:01;101284.06;;;9.14;100.00
37610;BME280;23457;51.966;8.230;2024-02-21T04:21:28;101284.50;;;8.99;100.00
37610;BME280;23457;51.966;8.230;2024-02-21T04:23:55;101282.50;;;8.90;100.00
37610;BME280;23457;51.966;8.230;2024-02-21T04:26:22;101270.78;;;9.03;100.00
37610;BME280;23457;51.966;8.230;2024-02-21T04:28:48;101286.94;;;9.21;100.00
37610;BME280;23457;51.966;8.230;2024-02-21T04:31:15;101270.22;;;9.12;100.00
37610;BME280;23457;51.966;8.230;2024-02-21T04:33:42;101276.19;;;9.09;100.00
37610;BME280;23457;51.966;8.230;2024-02-21T04:36:09;101277.59;;;8.99;100.00
37610;BME280;23457;51.966;8.230;2024-02-21T04:38:35;101283.06;;;9.09;100.00
37610;BME280;23457;51.966;8.230;2024-02-21T04:41:02;101274.75;;;9.19;100.00
37610;BME280;23457;51.966;8.230;2024-02-21T04:43:29;101275.50;;;9.16;100.00
37610;BME280;23457;51.966;8.230;2024-02-21T04:45:56;101277.44;;;9.22;100.00
37610;BME280;23457;51.966;8.230;2024-02-21T04:48:22;101277.13;;;9.13;100.00
37610;BME280;23457;51.966;8.230;2024-02-21T04:50:49;101288.38;;;9.12;100.00
37610;BME280;23457;51.966;8.230;2024-02-21T04:53:15;101288.50;;;8.89;100.00
37610;BME280;23457;51.966;8.230;2024-02-21T04:55:42;101285.06;;;8.90;100.00
37610;BME280;23457;51.966;8.230;2024-02-21T04:58:09;101288.72;;;8.95;100.00
37610;BME280;23457;51.966;8.230;2024-02-21T05:00:36;101298.75;;;8.85;100.00
37610;BME280;23457;51.966;8.230;2024-02-21T05:03:03;101290.47;;;8.96;100.00
37610;BME280;23457;51.966;8.230;2024-02-21T05:05:29;101288.44;;;8.86;100.00
37610;BME280;23457;51.966;8.230;2024-02-21T05:07:56;101294.28;;;8.81;100.00
37610;BME280;23457;51.966;8.230;2024-02-21T05:10:23;101287.22;;;9.04;100.00
37610;BME280;23457;51.966;8.230;2024-02-21T05:12:50;101275.78;;;8.70;100.00
37610;BME280;23457;51.966;8.230;2024-02-21T05:15:16;101261.38;;;8.78;100.00
37610;BME280;23457;51.966;8.230;2024-02-21T05:17:43;101257.09;;;8.53;100.00
37610;BME280;23457;51.966;8.230;2024-02-21T05:20:10;101247.63;;;8.81;100.00
37610;BME280;23457;51.966;8.230;2024-02-21T05:22:37;101252.72;;;8.78;100.00
37610;BME280;23457;51.966;8.230;2024-02-21T05:25:04;101241.91;;;8.64;100.00
37610;BME280;23457;51.966;8.230;2024-02-21T05:27:31;101236.66;;;8.61;100.00
37610;BME280;23457;51.966;8.230;2024-02-21T05:29:58;101232.72;;;8.47;100.00
37610;BME280;23457;51.966;8.230;2024-02-21T05:32:25;101241.63;;;8.55;100.00
37610;BME280;23457;51.966;8.230;2024-02-21T05:34:52;101239.25;;;8.61;100.00
37610;BME280;23457;51.966;8.230;2024-02-21T05:37:19;101230.72;;;8.65;100.00
37610;BME280;23457;51.966;8.230;2024-02-21T05:39:46;101231.75;;;8.70;100.00
37610;BME280;23457;51.966;8.230;2024-02-21T05:42:13;101222.59;;;8.81;100.00
37610;BME280;23457;51.966;8.230;2024-02-21T05:44:39;101223.13;;;8.71;100.00
37610;BME280;23457;51.966;8.230;2024-02-21T05:47:06;101228.31;;;8.71;100.00
37610;BME280;23457;51.966;8.230;2024-02-21T05:49:36;101214.31;;;8.66;100.00
37610;BME280;23457;51.966;8.230;2024-02-21T05:52:04;101219.50;;;8.93;100.00
37610;BME280;23457;51.966;8.230;2024-02-21T05:54:32;101207.03;;;8.81;100.00
37610;BME280;23457;51.966;8.230;2024-02-21T05:56:59;101203.72;;;8.85;100.00
37610;BME280;23457;51.966;8.230;2024-02-21T05:59:26;101209.81;;;8.87;100.00
37610;BME280;23457;51.966;8.230;2024-02-21T06:01:59;101206.94;;;8.78;100.00
37610;BME280;23457;51.966;8.230;2024-02-21T06:04:26;101203.88;;;8.91;100.00
37610;BME280;23457;51.966;8.230;2024-02-21T06:06:53;101205.47;;;8.86;100.00
37610;BME280;23457;51.966;8.230;2024-02-21T06:09:20;101207.88;;;8.80;100.00
37610;BME280;23457;51.966;8.230;2024-02-21T06:11:46;101215.75;;;8.83;100.00
37610;BME280;23457;51.966;8.230;2024-02-21T06:14:15;101225.22;;;8.83;100.00
37610;BME280;23457;51.966;8.230;2024-02-21T06:16:43;101220.94;;;8.83;100.00
37610;BME280;23457;51.966;8.230;2024-02-21T06:19:10;101212.75;;;8.99;100.00
37610;BME280;23457;51.966;8.230;2024-02-21T06:21:37;101212.50;;;8.90;100.00
37610;BME280;23457;51.966;8.230;2024-02-21T06:24:04;101210.38;;;9.06;100.00
37610;BME280;23457;51.966;8.230;2024-02-21T06:26:31;101210.50;;;8.82;100.00
37610;BME280;23457;51.966;8.230;2024-02-21T06:28:57;101197.50;;;8.80;100.00
37610;BME280;23457;51.966;8.230;2024-02-21T06:31:27;101188.44;;;8.94;100.00
37610;BME280;23457;51.966;8.230;2024-02-21T06:33:54;101185.78;;;8.93;100.00
37610;BME280;23457;51.966;8.230;2024-02-21T06:36:21;101184.91;;;8.92;100.00
37610;BME280;23457;51.966;8.230;2024-02-21T06:38:48;101179.00;;;8.96;100.00
37610;BME280;23457;51.966;8.230;2024-02-21T06:41:18;101185.13;;;8.98;100.00
37610;BME280;23457;51.966;8.230;2024-02-21T06:43:46;101182.88;;;9.11;100.00
37610;BME280;23457;51.966;8.230;2024-02-21T06:46:27;101182.72;;;9.06;100.00
37610;BME280;23457;51.966;8.230;2024-02-21T06:48:56;101174.31;;;8.85;100.00
37610;BME280;23457;51.966;8.230;2024-02-21T06:51:23;101176.47;;;8.99;100.00
37610;BME280;23457;51.966;8.230;2024-02-21T06:53:52;101171.28;;;8.99;100.00
37610;BME280;23457;51.966;8.230;2024-02-21T06:56:19;101158.63;;;8.80;100.00
37610;BME280;23457;51.966;8.230;2024-02-21T06:58:46;101162.56;;;8.96;100.00
37610;BME280;23457;51.966;8.230;2024-02-21T07:01:12;101155.09;;;9.07;100.00
37610;BME280;23457;51.966;8.230;2024-02-21T07:03:39;101155.94;;;9.06;100.00
37610;BME280;23457;51.966;8.230;2024-02-21T07:06:06;101152.16;;;8.94;100.00
37610;BME280;23457;51.966;8.230;2024-02-21T07:08:33;101159.09;;;8.95;100.00
37610;BME280;23457;51.966;8.230;2024-02-21T07:11:00;101157.59;;;9.04;100.00
37610;BME280;23457;51.966;8.230;2024-02-21T07:13:26;101155.81;;;9.03;100.00
37610;BME280;23457;51.966;8.230;2024-02-21T07:15:53;101157.84;;;9.13;100.00
37610;BME280;23457;51.966;8.230;2024-02-21T07:18:20;101163.19;;;8.89;100.00
37610;BME280;23457;51.966;8.230;2024-02-21T07:20:47;101171.28;;;8.99;100.00
37610;BME280;23457;51.966;8.230;2024-02-21T07:23:13;101180.19;;;9.08;100.00
37610;BME280;23457;51.966;8.230;2024-02-21T07:25:40;101180.97;;;9.05;100.00
37610;BME280;23457;51.966;8.230;2024-02-21T07:28:07;101181.44;;;9.20;100.00
37610;BME280;23457;51.966;8.230;2024-02-21T07:30:34;101179.56;;;9.16;100.00
37610;BME280;23457;51.966;8.230;2024-02-21T07:33:00;101186.41;;;9.14;100.00
37610;BME280;23457;51.966;8.230;2024-02-21T07:35:27;101179.03;;;9.28;100.00
37610;BME280;23457;51.966;8.230;2024-02-21T07:37:54;101180.69;;;9.26;100.00
37610;BME280;23457;51.966;8.230;2024-02-21T07:40:21;101179.63;;;9.18;100.00
37610;BME280;23457;51.966;8.230;2024-02-21T07:42:47;101172.38;;;9.36;100.00
37610;BME280;23457;51.966;8.230;2024-02-21T07:45:17;101167.75;;;9.57;100.00
37610;BME280;23457;51.966;8.230;2024-02-21T07:47:50;101175.59;;;9.29;100.00
37610;BME280;23457;51.966;8.230;2024-02-21T07:50:17;101165.38;;;9.33;100.00
37610;BME280;23457;51.966;8.230;2024-02-21T07:52:44;101166.53;;;9.45;100.00
37610;BME280;23457;51.966;8.230;2024-02-21T07:55:10;101169.28;;;9.19;100.00
37610;BME280;23457;51.966;8.230;2024-02-21T07:57:37;101169.00;;;9.40;100.00
37610;BME280;23457;51.966;8.230;2024-02-21T08:00:04;101167.75;;;9.57;100.00
37610;BME280;23457;51.966;8.230;2024-02-21T08:02:37;101170.84;;;9.44;100.00
37610;BME280;23457;51.966;8.230;2024-02-21T08:05:04;101161.78;;;9.60;100.00
37610;BME280;23457;51.966;8.230;2024-02-21T08:07:31;101154.66;;;9.53;100.00
37610;BME280;23457;51.966;8.230;2024-02-21T08:09:58;101154.47;;;9.45;100.00
37610;BME280;23457;51.966;8.230;2024-02-21T08:12:25;101157.78;;;9.41;100.00
37610;BME280;23457;51.966;8.230;2024-02-21T08:14:51;101142.69;;;9.58;100.00
37610;BME280;23457;51.966;8.230;2024-02-21T08:17:18;101140.38;;;9.68;100.00
37610;BME280;23457;51.966;8.230;2024-02-21T08:19:44;101132.34;;;9.59;100.00
37610;BME280;23457;51.966;8.230;2024-02-21T08:22:11;101132.34;;;9.59;100.00
37610;BME280;23457;51.966;8.230;2024-02-21T08:24:38;101124.56;;;9.59;100.00
37610;BME280;23457;51.966;8.230;2024-02-21T08:27:05;101125.50;;;9.63;100.00
37610;BME280;23457;51.966;8.230;2024-02-21T08:29:32;101117.97;;;9.72;100.00
37610;BME280;23457;51.966;8.230;2024-02-21T08:31:59;101120.63;;;9.74;100.00
37610;BME280;23457;51.966;8.230;2024-02-21T08:34:26;101112.31;;;9.87;100.00
37610;BME280;23457;51.966;8.230;2024-02-21T08:36:52;101107.47;;;10.02;100.00
37610;BME280;23457;51.966;8.230;2024-02-21T08:39:19;101103.25;;;10.05;100.00
37610;BME280;23457;51.966;8.230;2024-02-21T08:41:46;101102.28;;;10.02;100.00
37610;BME280;23457;51.966;8.230;2024-02-21T08:44:28;101097.09;;;10.02;100.00
37610;BME280;23457;51.966;8.230;2024-02-21T08:46:55;101093.34;;;9.91;100.00
37610;BME280;23457;51.966;8.230;2024-02-21T08:49:23;101092.38;;;9.86;100.00
37610;BME280;23457;51.966;8.230;2024-02-21T08:51:51;101088.16;;;9.91;100.00
37610;BME280;23457;51.966;8.230;2024-02-21T08:54:17;101081.53;;;10.03;100.00
37610;BME280;23457;51.966;8.230;2024-02-21T08:56:44;101083.31;;;10.04;100.00
37610;BME280;23457;51.966;8.230;2024-02-21T08:59:11;101081.19;;;9.90;100.00
37610;BME280;23457;51.966;8.230;2024-02-21T09:01:38;101086.69;;;10.00;100.00
37610;BME280;23457;51.966;8.230;2024-02-21T09:04:04;101075.06;;;10.21;100.00
37610;BME280;23457;51.966;8.230;2024-02-21T09:06:32;101081.63;;;10.06;100.00
37610;BME280;23457;51.966;8.230;2024-02-21T09:09:00;101082.91;;;10.22;100.00
37610;BME280;23457;51.966;8.230;2024-02-21T09:11:27;101073.47;;;10.27;100.00
37610;BME280;23457;51.966;8.230;2024-02-21T09:13:55;101084.53;;;10.56;100.00
37610;BME280;23457;51.966;8.230;2024-02-21T09:16:22;101078.78;;;10.32;100.00
37610;BME280;23457;51.966;8.230;2024-02-21T09:18:50;101078.06;;;10.37;100.00
37610;BME280;23457;51.966;8.230;2024-02-21T09:21:17;101082.50;;;10.43;100.00
37610;BME280;23457;51.966;8.230;2024-02-21T09:23:44;101078.66;;;10.26;100.00
37610;BME280;23457;51.966;8.230;2024-02-21T09:26:11;101087.69;;;10.43;100.00
37610;BME280;23457;51.966;8.230;2024-02-21T09:28:40;101082.34;;;10.35;100.00
37610;BME280;23457;51.966;8.230;2024-02-21T09:31:07;101082.50;;;10.43;100.00
37610;BME280;23457;51.966;8.230;2024-02-21T09:33:34;101074.66;;;10.41;100.00
37610;BME280;23457;51.966;8.230;2024-02-21T09:36:01;101070.00;;;10.25;100.00
37610;BME280;23457;51.966;8.230;2024-02-21T09:38:28;101065.16;;;10.42;100.00
37610;BME280;23457;51.966;8.230;2024-02-21T09:41:11;101054.03;;;10.48;100.00
37610;BME280;23457;51.966;8.230;2024-02-21T09:43:41;101050.00;;;10.62;100.00
37610;BME280;23457;51.966;8.230;2024-02-21T09:46:14;101037.19;;;10.71;100.00
37610;BME280;23457;51.966;8.230;2024-02-21T09:49:13;101039.78;;;10.71;100.00
37610;BME280;23457;51.966;8.230;2024-02-21T09:51:38;101038.44;;;10.48;100.00
37610;BME280;23457;51.966;8.230;2024-02-21T09:54:07;101030.75;;;10.54;100.00
37610;BME280;23457;51.966;8.230;2024-02-21T09:56:45;101034.31;;;10.57;100.00
37610;BME280;23457;51.966;8.230;2024-02-21T09:59:11;101036.56;;;10.42;100.00
37610;BME280;23457;51.966;8.230;2024-02-21T10:01:38;101032.06;;;10.74;100.00
37610;BME280;23457;51.966;8.230;2024-02-21T10:04:05;101028.56;;;10.72;100.00
37610;BME280;23457;51.966;8.230;2024-02-21T10:06:33;101026.63;;;10.62;100.00
37610;BME280;23457;51.966;8.230;2024-02-21T10:08:59;101024.22;;;10.72;100.00
37610;BME280;23457;51.966;8.230;2024-02-21T10:11:26;101028.56;;;10.72;100.00
37610;BME280;23457;51.966;8.230;2024-02-21T10:14:23;101024.78;;;10.58;100.00
37610;BME280;23457;51.966;8.230;2024-02-21T10:16:56;101029.97;;;10.58;100.00
37610;BME280;23457;51.966;8.230;2024-02-21T10:19:25;101025.25;;;10.38;100.00
37610;BME280;23457;51.966;8.230;2024-02-21T10:22:07;101024.66;;;10.52;100.00
37610;BME280;23457;51.966;8.230;2024-02-21T10:24:35;101021.00;;;10.44;100.00
37610;BME280;23457;51.966;8.230;2024-02-21T10:27:06;101024.09;;;10.66;100.00
37610;BME280;23457;51.966;8.230;2024-02-21T10:29:39;101027.63;;;10.70;100.00
37610;BME280;23457;51.966;8.230;2024-02-21T10:32:09;101027.88;;;10.82;100.00
37610;BME280;23457;51.966;8.230;2024-02-21T10:34:39;101021.41;;;10.62;100.00
37610;BME280;23457;51.966;8.230;2024-02-21T10:37:07;101018.22;;;10.75;100.00
37610;BME280;23457;51.966;8.230;2024-02-21T10:39:37;101014.78;;;10.35;100.00
37610;BME280;23457;51.966;8.230;2024-02-21T10:42:04;101007.06;;;10.38;100.00
37610;BME280;23457;51.966;8.230;2024-02-21T10:44:34;101004.53;;;10.43;100.00
37610;BME280;23457;51.966;8.230;2024-02-21T10:47:08;101004.50;;;10.41;100.00
37610;BME280;23457;51.966;8.230;2024-02-21T10:49:40;100995.50;;;10.66;100.00
37610;BME280;23457;51.966;8.230;2024-02-21T10:52:14;100995.91;;;10.86;100.00
37610;BME280;23457;51.966;8.230;2024-02-21T10:57:14;100975.63;;;10.68;100.00
37610;BME280;23457;51.966;8.230;2024-02-21T10:59:44;100971.13;;;10.60;100.00
37610;BME280;23457;51.966;8.230;2024-02-21T11:02:11;100960.09;;;10.71;100.00
37610;BME280;23457;51.966;8.230;2024-02-21T11:04:38;100960.84;;;10.67;100.00
37610;BME280;23457;51.966;8.230;2024-02-21T11:07:07;100956.75;;;10.78;100.00
37610;BME280;23457;51.966;8.230;2024-02-21T11:09:37;100937.66;;;10.78;100.00
37610;BME280;23457;51.966;8.230;2024-02-21T11:12:05;100938.78;;;10.92;100.00
37610;BME280;23457;51.966;8.230;2024-02-21T11:14:33;100943.00;;;10.84;100.00
37610;BME280;23457;51.966;8.230;2024-02-21T11:17:16;100941.88;;;10.71;100.00
37610;BME280;23457;51.966;8.230;2024-02-21T11:19:44;100936.81;;;10.79;100.00
37610;BME280;23457;51.966;8.230;2024-02-21T11:22:18;100933.06;;;10.65;100.00
37610;BME280;23457;51.966;8.230;2024-02-21T11:24:46;100925.84;;;10.49;100.00
37610;BME280;23457;51.966;8.230;2024-02-21T11:27:15;100916.34;;;10.49;100.00
37610;BME280;23457;51.966;8.230;2024-02-21T11:29:45;100919.69;;;10.44;100.00
37610;BME280;23457;51.966;8.230;2024-02-21T11:32:16;100903.53;;;10.60;100.00
37610;BME280;23457;51.966;8.230;2024-02-21T11:35:02;100891.31;;;10.56;100.00
37610;BME280;23457;51.966;8.230;2024-02-21T11:37:32;100897.09;;;10.41;100.00
37610;BME280;23457;51.966;8.230;2024-02-21T11:40:06;100893.31;;;10.24;100.00
37610;BME280;23457;51.966;8.230;2024-02-21T11:42:38;100885.00;;;10.01;100.00
37610;BME280;23457;51.966;8.230;2024-02-21T11:45:06;100885.75;;;9.95;100.00
37610;BME280;23457;51.966;8.230;2024-02-21T11:47:33;100881.38;;;9.93;100.00
37610;BME280;23457;51.966;8.230;2024-02-21T11:50:00;100873.06;;;10.09;100.00
37610;BME280;23457;51.966;8.230;2024-02-21T11:52:27;100870.16;;;9.94;100.00
37610;BME280;23457;51.966;8.230;2024-02-21T11:54:55;100868.59;;;10.03;100.00
37610;BME280;23457;51.966;8.230;2024-02-21T11:57:31;100863.63;;;10.14;100.00
37610;BME280;23457;51.966;8.230;2024-02-21T11:59:58;100860.78;;;10.02;100.00
37610;BME280;23457;51.966;8.230;2024-02-21T12:02:30;100866.56;;;9.89;100.00
37610;BME280;23457;51.966;8.230;2024-02-21T12:04:57;100867.69;;;10.00;100.00
37610;BME280;23457;51.966;8.230;2024-02-21T12:07:24;100864.44;;;10.10;100.00
37610;BME280;23457;51.966;8.230;2024-02-21T12:09:51;100859.00;;;9.98;100.00
37610;BME280;23457;51.966;8.230;2024-02-21T12:12:20;100845.34;;;10.08;100.00
37610;BME280;23457;51.966;8.230;2024-02-21T12:14:54;100846.69;;;9.88;100.00
37610;BME280;23457;51.966;8.230;2024-02-21T12:17:21;100843.44;;;10.01;100.00
37610;BME280;23457;51.966;8.230;2024-02-21T12:19:48;100833.09;;;10.02;100.00
37610;BME280;23457;51.966;8.230;2024-02-21T12:22:19;100824.25;;;9.93;100.00
37610;BME280;23457;51.966;8.230;2024-02-21T12:24:46;100816.19;;;10.21;100.00
37610;BME280;23457;51.966;8.230;2024-02-21T12:27:14;100811.44;;;10.44;100.00
37610;BME280;23457;51.966;8.230;2024-02-21T12:29:40;100799.63;;;10.16;100.00
37610;BME280;23457;51.966;8.230;2024-02-21T12:32:07;100786.66;;;10.18;100.00
37610;BME280;23457;51.966;8.230;2024-02-21T12:34:34;100782.41;;;10.20;100.00
37610;BME280;23457;51.966;8.230;2024-02-21T12:37:18;100779.91;;;10.24;100.00
37610;BME280;23457;51.966;8.230;2024-02-21T12:39:46;100767.00;;;10.30;100.00
37610;BME280;23457;51.966;8.230;2024-02-21T12:42:13;100763.59;;;10.33;100.00
37610;BME280;23457;51.966;8.230;2024-02-21T12:44:40;100774.13;;;9.95;100.00
37610;BME280;23457;51.966;8.230;2024-02-21T12:47:07;100767.59;;;10.17;100.00
37610;BME280;23457;51.966;8.230;2024-02-21T12:49:34;100770.09;;;10.11;100.00
37610;BME280;23457;51.966;8.230;2024-02-21T12:52:02;100755.72;;;10.28;100.00
37610;BME280;23457;51.966;8.230;2024-02-21T12:54:30;100744.50;;;10.31;100.00
37610;BME280;23457;51.966;8.230;2024-02-21T12:56:57;100736.63;;;10.26;100.00